San Francisco, CA

8:26 PM PDT on August 29, 2014 (GMT -0700)
San Francisco International | Change Station
CLOSE
Current Station
Airport
Location: San Francisco,
Elevation: 16 ft
Nearby Weather Stations

Elev 16 ft 37.62 °N, 122.37 °W | Updated 30 minutes ago

Mostly Cloudy
Mostly Cloudy
64 °F
Feels Like 64 °F
N
14
Wind Variable Wind from WNW

Today
High -- | Low -- °F
--% Chance of Precip.
Yesterday
High -- | Low -- °F
Precip. -- in
6:37 AM 7:42 PM
Waxing Crescent, 18% visible
Pressure 29.90 in
Visibility 10.0 miles
Clouds Few 800 ft
Mostly Cloudy 18000 ft
Dew Point 60 °F
Humidity 87%
Rainfall 0.00 in
Snow Depth Not available.
UV 0 out of 12
Pollen 7.40 out of 12
Ozone Good
PM2.5 Good
Flu Activity Not available.
METAR KSFO 300256Z 30012KT 10SM FEW008 BKN180 18/16 A2990 RMK AO2 SLP125 T01780156 55000 $

More Conditions Fewer Conditions

Pressure 29.90 in
Visibility 10.0 miles
Clouds Few 800 ft
Mostly Cloudy 18000 ft
Dew Point 60 °F
Humidity 87%
Rainfall 0.00 in
Snow Depth Not available.
UV 0 out of 12
Pollen 7.40 out of 12
Ozone Good
PM2.5 Good
Flu Activity Not available.
METAR KSFO 300256Z 30012KT 10SM FEW008 BKN180 18/16 A2990 RMK AO2 SLP125 T01780156 55000 $

More Conditions Fewer Conditions

10-Day Weather Forecast

Almanac

Astronomy

Aug. 29, 2014 Rise Set
Actual Time 6:37 AM PDT 7:42 PM PDT
Civil Twilight 6:10 AM PDT 8:09 PM PDT
Nautical Twilight 5:38 AM PDT 8:41 PM PDT
Astronomical Twilight 5:04 AM PDT 9:14 PM PDT
Moon 10:26 AM PDT (8/29) 9:49 PM PDT (8/29)
Length of Visible Light 13h 59m
Length of Day
13h 05m
Tomorrow will be 2m 18s shorter.
Waxing Crescent, 18% of the Moon is Illuminated
Today
Waxing Crescent
Sep 2
First Quarter
Sep 8
Full
Sep 15
Last Quarter
Sep 24
New

Today's Extremes

State Highs State Lows

Community

WunderPhotos

Upload Photos

1,748,428 photos uploaded!

Nearby

Air Quality

  Air Quality AQ Index Pollutant
Yesterday Good
PM2.5
Yesterday Good
OZONE
Current Good
PM2.5
Current Good
OZONE
Friday Good
PM2.5
Saturday Good
PM2.5
Sunday Good
OZONE
Monday Good
OZONE
Tuesday Good
PM2.5
Wednesday Good
OZONE

Snow Depth

Station Depth Elevation
Echo Peak 0 in 7800 ft
Hagan's Meadow 0 in 8000 ft
CSS Lab 2 in 6900 ft
Leavitt Meadows 0 in 7200 ft
Summit Meadow 0 in 9122 ft

Earthquake Activity

City Distance Mag. Time & Date
Ridgemark, California 86 miles 3.5 4:32 PM PDT
2014-08-29
The Geysers, California 86 miles 2.7 2:53 PM PDT
2014-08-29
Ridgemark, California 86 miles 3.0 2:44 PM PDT
2014-08-29
Napa, California 43 miles 2.6 11:57 AM PDT
2014-08-27
Minimum magnitude displayed is 2.5.

Coastal Water Temperatures

Place Temperature
No Stations Reporting

Nearby Weather Stations